createdAt,value
2022-11-24T00:01:07.681Z,95933.53
2022-11-24T00:03:34.986Z,95952.47
2022-11-24T00:06:07.576Z,95955.25
2022-11-24T00:08:35.474Z,95952.47
2022-11-24T00:11:08.360Z,95947.28
2022-11-24T00:13:35.902Z,95959.16
2022-11-24T00:16:06.748Z,95951.59
2022-11-24T00:18:33.335Z,95890.66
2022-11-24T00:20:59.920Z,95933.41
2022-11-24T00:23:26.875Z,95949.59
2022-11-24T00:25:53.537Z,95948.44
2022-11-24T00:28:20.088Z,95949.22
2022-11-24T00:30:46.747Z,95957.44
2022-11-24T00:33:13.325Z,95951.88
2022-11-24T00:35:39.861Z,95958.16
2022-11-24T00:38:06.520Z,95958.91
2022-11-24T00:40:35.099Z,95978.69
2022-11-24T00:43:01.898Z,95902.38
2022-11-24T00:45:28.414Z,95951.50
2022-11-24T00:47:54.992Z,95952.72
2022-11-24T00:50:21.528Z,95943.16
2022-11-24T00:52:48.080Z,95964.97
2022-11-24T00:55:14.755Z,95917.94
2022-11-24T00:57:41.337Z,95952.81
2022-11-24T01:00:08.632Z,95959.97
2022-11-24T01:02:35.261Z,95953.28
2022-11-24T01:05:03.354Z,95958.41
2022-11-24T01:07:30.933Z,95948.88
2022-11-24T01:09:57.577Z,95964.72
2022-11-24T01:12:24.189Z,95956.81
2022-11-24T01:14:50.773Z,95960.78
2022-11-24T01:17:17.329Z,95930.78
2022-11-24T01:19:43.880Z,95946.59
2022-11-24T01:22:10.389Z,95946.59
2022-11-24T01:24:36.950Z,95954.91
2022-11-24T01:27:03.566Z,95934.34
2022-11-24T01:29:30.246Z,95957.66
2022-11-24T01:31:56.826Z,95955.72
2022-11-24T01:34:23.372Z,95958.47
2022-11-24T01:36:50.263Z,95964.81
2022-11-24T01:39:16.798Z,95945.00
2022-11-24T01:41:43.428Z,95958.50
2022-11-24T01:44:23.529Z,95964.00
2022-11-24T01:46:55.295Z,95963.19
2022-11-24T01:49:26.937Z,95885.66
2022-11-24T01:51:53.409Z,95962.38
2022-11-24T01:54:50.011Z,95960.78
2022-11-24T01:57:25.987Z,95916.03
2022-11-24T01:59:57.499Z,95967.47
2022-11-24T02:02:26.087Z,95961.19
2022-11-24T02:04:53.362Z,95969.50
2022-11-24T02:07:20.333Z,95925.97
2022-11-24T02:09:59.133Z,95961.59
2022-11-24T02:12:27.030Z,95981.31
2022-11-24T02:14:54.945Z,95969.44
2022-11-24T02:17:22.033Z,95956.78
2022-11-24T02:20:04.035Z,95954.44
2022-11-24T02:23:02.982Z,95951.25
2022-11-24T02:25:46.838Z,95980.06
2022-11-24T02:28:17.449Z,95954.72
2022-11-24T02:30:44.619Z,95960.63
2022-11-24T02:33:13.051Z,95961.72
2022-11-24T02:35:40.019Z,95952.59
2022-11-24T02:38:06.614Z,95863.06
2022-11-24T02:40:33.473Z,95958.41
2022-11-24T02:43:09.444Z,95962.72
2022-11-24T02:45:35.996Z,95919.09
2022-11-24T02:48:02.589Z,95914.41
2022-11-24T02:50:29.132Z,95940.97
2022-11-24T02:52:55.697Z,95942.56
2022-11-24T02:55:23.510Z,95946.47
2022-11-24T02:57:50.388Z,95950.81
2022-11-24T03:00:17.604Z,95889.84
2022-11-24T03:02:44.220Z,95939.41
2022-11-24T03:05:12.402Z,95917.63
2022-11-24T03:07:39.050Z,95946.03
2022-11-24T03:10:06.465Z,95937.38
2022-11-24T03:12:33.009Z,95941.28
2022-11-24T03:14:59.681Z,95947.16
2022-11-24T03:17:26.471Z,95867.66
2022-11-24T03:19:53.017Z,95944.44
2022-11-24T03:22:19.554Z,95944.44
2022-11-24T03:24:46.156Z,95948.31
2022-11-24T03:27:12.686Z,95948.28
2022-11-24T03:29:39.313Z,95951.81
2022-11-24T03:32:05.938Z,95959.28
2022-11-24T03:34:32.891Z,95954.94
2022-11-24T03:36:59.664Z,95956.03
2022-11-24T03:39:26.231Z,95948.91
2022-11-24T03:41:52.885Z,95915.84
2022-11-24T03:44:19.462Z,95947.28
2022-11-24T03:46:46.139Z,95959.00
2022-11-24T03:49:12.729Z,95899.13
2022-11-24T03:51:39.336Z,95911.38
2022-11-24T03:54:06.787Z,95966.38
2022-11-24T03:56:33.393Z,95915.28
2022-11-24T03:58:59.986Z,95939.78
2022-11-24T04:01:26.681Z,95970.53
2022-11-24T04:03:53.296Z,95973.06
2022-11-24T04:06:19.941Z,95864.25
2022-11-24T04:08:46.501Z,95974.38
2022-11-24T04:11:33.033Z,95982.22
2022-11-24T04:13:59.597Z,95983.31
2022-11-24T04:16:26.362Z,95986.06
2022-11-24T04:18:53.655Z,95981.22
2022-11-24T04:21:20.730Z,95983.91
2022-11-24T04:23:47.485Z,95992.13
2022-11-24T04:26:14.694Z,95983.44
2022-11-24T04:28:41.305Z,95987.66
2022-11-24T04:31:07.964Z,95990.84
2022-11-24T04:33:34.546Z,95995.09
2022-11-24T04:36:01.159Z,96022.63
2022-11-24T04:39:22.783Z,96002.50
2022-11-24T04:41:14.425Z,95966.16
2022-11-24T04:43:41.058Z,95921.94
2022-11-24T04:46:10.438Z,95952.72
2022-11-24T04:48:37.274Z,96016.84
2022-11-24T04:51:07.242Z,95992.50
2022-11-24T04:53:33.799Z,96012.00
2022-11-24T04:56:05.238Z,96015.06
2022-11-24T04:58:31.953Z,95968.13
2022-11-24T05:00:58.542Z,96015.16
2022-11-24T05:03:25.152Z,95918.28
2022-11-24T05:05:51.676Z,95969.69
2022-11-24T05:08:18.252Z,96028.41
2022-11-24T05:10:45.023Z,96029.13
2022-11-24T05:13:13.160Z,96033.56
2022-11-24T05:15:41.105Z,96030.41
2022-11-24T05:18:11.047Z,95900.25
2022-11-24T05:20:37.795Z,95967.34
2022-11-24T05:23:06.541Z,96039.06
2022-11-24T05:25:36.373Z,96041.81
2022-11-24T05:28:05.629Z,96040.69
2022-11-24T05:30:32.697Z,96046.06
2022-11-24T05:32:59.337Z,96023.94
2022-11-24T05:35:25.966Z,96055.28
2022-11-24T05:37:52.586Z,96060.53
2022-11-24T05:40:19.149Z,96045.44
2022-11-24T05:42:48.135Z,96053.38
2022-11-24T05:45:20.496Z,96051.78
2022-11-24T05:47:47.902Z,96065.16
2022-11-24T05:50:17.072Z,96059.63
2022-11-24T05:52:43.863Z,96070.66
2022-11-24T05:55:10.810Z,96064.69
2022-11-24T05:57:37.887Z,96076.53
2022-11-24T06:00:07.218Z,96061.28
2022-11-24T06:02:34.018Z,96058.88
2022-11-24T06:05:00.793Z,96067.53
2022-11-24T06:07:27.471Z,95994.84
2022-11-24T06:09:54.104Z,96063.75
2022-11-24T06:12:20.692Z,95991.91
2022-11-24T06:14:47.300Z,96056.88
2022-11-24T06:17:14.006Z,96069.56
2022-11-24T06:19:42.295Z,96052.09
2022-11-24T06:22:09.081Z,96072.22
2022-11-24T06:24:35.877Z,96085.66
2022-11-24T06:27:02.893Z,96003.88
2022-11-24T06:29:29.472Z,96070.06
2022-11-24T06:31:56.031Z,95966.72
2022-11-24T06:34:22.642Z,96074.34
2022-11-24T06:36:49.229Z,96087.72
2022-11-24T06:39:15.830Z,96078.44
2022-11-24T06:41:42.402Z,96085.94
2022-11-24T06:44:09.079Z,96095.22
2022-11-24T06:46:35.797Z,96089.66
2022-11-24T06:49:02.532Z,96078.31
2022-11-24T06:51:29.247Z,96108.38
2022-11-24T06:53:55.969Z,96081.50
2022-11-24T06:56:22.801Z,95975.16
2022-11-24T06:58:52.173Z,96100.44
2022-11-24T07:01:24.668Z,96097.34
2022-11-24T07:03:52.590Z,95973.63
2022-11-24T07:06:21.348Z,96103.47
2022-11-24T07:08:48.602Z,95975.97
2022-11-24T07:11:21.733Z,95737.06
2022-11-24T07:13:48.827Z,96076.63
2022-11-24T07:16:22.500Z,96090.66
2022-11-24T07:18:51.630Z,96105.38
2022-11-24T07:21:19.829Z,96089.63
2022-11-24T07:23:53.861Z,96092.91
2022-11-24T07:26:21.078Z,96094.56
2022-11-24T07:28:48.101Z,96059.75
2022-11-24T07:31:18.897Z,96093.03
2022-11-24T07:33:50.029Z,96095.38
2022-11-24T07:36:17.242Z,96072.41
2022-11-24T07:38:44.158Z,96037.56
2022-11-24T07:41:12.940Z,96093.25
2022-11-24T07:43:39.875Z,96085.56
2022-11-24T07:46:08.946Z,96030.44
2022-11-24T07:48:35.698Z,96058.22
2022-11-24T07:51:03.630Z,96041.13
2022-11-24T07:53:31.342Z,96076.06
2022-11-24T07:56:00.541Z,96081.38
2022-11-24T07:58:33.284Z,96075.50
2022-11-24T08:01:01.227Z,96065.50
2022-11-24T08:03:28.078Z,96071.56
2022-11-24T08:08:47.351Z,96072.50
2022-11-24T08:11:16.233Z,96079.19
2022-11-24T08:13:43.199Z,96076.75
2022-11-24T08:16:17.901Z,96070.16
2022-11-24T08:18:49.919Z,96079.38
2022-11-24T08:21:16.597Z,96077.88
2022-11-24T08:23:43.360Z,96075.53
2022-11-24T08:26:16.065Z,96073.81
2022-11-24T08:28:43.866Z,96085.06
2022-11-24T08:31:13.512Z,96074.50
2022-11-24T08:33:40.861Z,96075.22
2022-11-24T08:36:10.352Z,96071.56
2022-11-24T08:38:37.098Z,96072.28
2022-11-24T08:41:12.415Z,96030.50
2022-11-24T08:43:39.146Z,96032.00
2022-11-24T08:46:08.356Z,96071.47
2022-11-24T08:48:35.764Z,96069.25
2022-11-24T08:51:10.656Z,96075.44
2022-11-24T08:53:38.264Z,96083.56
2022-11-24T08:56:05.910Z,96077.38
2022-11-24T08:58:33.483Z,96083.78
2022-11-24T09:01:16.679Z,96078.03
2022-11-24T09:03:50.077Z,96074.56
2022-11-24T09:06:23.594Z,96062.69
2022-11-24T09:08:51.733Z,96091.44
2022-11-24T09:11:18.410Z,96073.88
2022-11-24T09:13:45.478Z,96038.53
2022-11-24T09:16:15.179Z,95700.09
2022-11-24T09:18:42.452Z,96086.28
2022-11-24T09:21:20.020Z,96095.56
2022-11-24T09:23:51.509Z,96044.09
2022-11-24T09:26:23.299Z,96047.13
2022-11-24T09:28:54.677Z,96088.78
2022-11-24T09:31:26.590Z,96079.28
2022-11-24T09:33:53.829Z,96049.91
2022-11-24T09:36:21.587Z,96074.50
2022-11-24T09:38:48.581Z,96033.69
2022-11-24T09:41:15.188Z,96081.91
2022-11-24T09:43:58.781Z,96083.56
2022-11-24T09:46:28.396Z,96130.47
2022-11-24T09:48:58.703Z,96052.13
2022-11-24T09:51:29.381Z,96070.25
2022-11-24T09:54:09.252Z,96070.59
2022-11-24T09:56:38.898Z,96061.91
2022-11-24T09:59:10.720Z,96069.81
2022-11-24T10:01:41.583Z,96074.53
2022-11-24T10:04:30.323Z,96018.53
2022-11-24T10:07:28.171Z,96062.59
2022-11-24T10:10:34.113Z,96067.69
2022-11-24T10:13:42.784Z,96067.88
2022-11-24T10:16:34.731Z,96015.72
2022-11-24T10:19:36.327Z,96064.38
2022-11-24T10:22:42.838Z,96061.59
2022-11-24T10:25:25.962Z,96058.53
2022-11-24T10:28:18.919Z,96064.50
2022-11-24T10:30:45.773Z,95955.34
2022-11-24T10:33:30.612Z,96097.44
2022-11-24T10:36:09.642Z,96073.00
2022-11-24T10:38:51.996Z,96099.38
2022-11-24T10:41:31.211Z,95997.22
2022-11-24T10:43:58.098Z,96052.09
2022-11-24T10:46:28.469Z,96022.06
2022-11-24T10:49:05.623Z,95987.63
2022-11-24T10:51:51.110Z,96049.38
2022-11-24T10:54:22.159Z,96054.59
2022-11-24T10:56:51.968Z,96031.63
2022-11-24T10:59:30.166Z,96063.09
2022-11-24T11:01:56.895Z,96030.38
2022-11-24T11:04:28.211Z,96053.13
2022-11-24T11:07:27.991Z,95990.22
2022-11-24T11:10:19.766Z,96055.19
2022-11-24T11:12:46.825Z,96056.53
2022-11-24T11:15:26.777Z,96064.44
2022-11-24T11:18:01.178Z,96055.63
2022-11-24T11:20:29.577Z,96048.00
2022-11-24T11:22:58.802Z,95988.22
2022-11-24T11:25:34.166Z,96056.88
2022-11-24T11:28:34.261Z,96061.28
2022-11-24T11:31:22.134Z,96060.03
2022-11-24T11:34:26.632Z,96063.38
2022-11-24T11:36:57.862Z,96068.50
2022-11-24T11:39:30.193Z,96070.81
2022-11-24T11:42:09.239Z,96069.38
2022-11-24T11:44:44.212Z,96077.78
2022-11-24T11:47:22.539Z,96037.34
2022-11-24T11:49:50.068Z,96076.38
2022-11-24T11:52:44.276Z,96075.97
2022-11-24T11:55:31.752Z,96081.97
2022-11-24T11:58:41.679Z,96114.38
2022-11-24T12:01:26.653Z,96083.66
2022-11-24T12:04:12.346Z,96076.44
2022-11-24T12:07:06.608Z,96086.03
2022-11-24T12:09:58.031Z,96093.47
2022-11-24T12:13:10.193Z,96082.63
2022-11-24T12:15:44.896Z,96094.19
2022-11-24T12:18:59.998Z,96097.69
2022-11-24T12:22:15.985Z,96093.03
2022-11-24T12:25:03.283Z,96073.63
2022-11-24T12:27:37.786Z,96104.34
2022-11-24T12:30:12.500Z,96128.00
2022-11-24T12:32:48.303Z,96106.88
2022-11-24T12:35:35.108Z,96112.47
2022-11-24T12:38:28.096Z,96113.66
2022-11-24T12:43:57.791Z,96047.66
2022-11-24T12:46:44.849Z,96119.66
2022-11-24T12:49:30.097Z,96112.97
2022-11-24T12:52:03.133Z,95977.56
2022-11-24T12:54:38.784Z,96104.38
2022-11-24T12:57:15.139Z,96109.97
2022-11-24T12:59:50.786Z,96107.69
2022-11-24T13:02:39.569Z,96102.28
2022-11-24T13:06:07.682Z,96115.06
2022-11-24T13:08:36.933Z,96056.56
2022-11-24T13:11:21.790Z,96118.19
2022-11-24T13:14:00.220Z,96111.00
2022-11-24T13:16:37.128Z,96093.97
2022-11-24T13:19:14.051Z,96113.88
2022-11-24T13:21:40.636Z,96113.66
2022-11-24T13:24:16.630Z,96128.31
2022-11-24T13:26:45.132Z,96132.91
2022-11-24T13:29:38.839Z,96137.84
2022-11-24T13:32:05.337Z,96137.16
2022-11-24T13:34:41.270Z,96138.75
2022-11-24T13:37:31.869Z,96136.03
2022-11-24T13:40:22.769Z,96140.75
2022-11-24T13:42:58.790Z,96141.19
2022-11-24T13:45:49.843Z,96145.22
2022-11-24T13:48:19.764Z,96149.97
2022-11-24T13:50:56.167Z,96154.69
2022-11-24T13:53:36.733Z,96146.38
2022-11-24T13:56:03.253Z,96144.41
2022-11-24T13:58:44.729Z,96153.91
2022-11-24T14:01:23.674Z,96148.44
2022-11-24T14:07:07.796Z,96123.50
2022-11-24T14:09:47.180Z,96160.31
2022-11-24T14:12:14.885Z,96157.13
2022-11-24T14:14:42.566Z,96157.13
2022-11-24T14:17:28.179Z,96154.78
2022-11-24T14:19:56.791Z,96152.41
2022-11-24T14:22:34.705Z,96160.31
2022-11-24T14:25:02.701Z,96119.94
2022-11-24T14:27:38.213Z,96161.91
2022-11-24T14:30:25.302Z,96165.88
2022-11-24T14:33:03.605Z,96148.84
2022-11-24T14:35:31.542Z,96171.41
2022-11-24T14:38:02.219Z,96103.31
2022-11-24T14:40:43.717Z,96136.56
2022-11-24T14:43:30.364Z,96175.38
2022-11-24T14:46:09.737Z,96177.75
2022-11-24T14:48:39.263Z,96180.09
2022-11-24T14:51:15.461Z,96188.78
2022-11-24T14:53:47.172Z,96186.41
2022-11-24T14:56:30.508Z,96196.72
2022-11-24T14:58:59.165Z,96139.59
2022-11-24T15:01:28.497Z,96187.94
2022-11-24T15:04:32.467Z,96122.50
2022-11-24T15:07:11.589Z,96209.63
2022-11-24T15:09:49.178Z,96212.00
2022-11-24T15:12:34.998Z,96213.13
2022-11-24T15:15:16.092Z,96185.34
2022-11-24T15:17:48.741Z,96223.06
2022-11-24T15:20:28.393Z,96221.03
2022-11-24T15:23:13.708Z,96218.69
2022-11-24T15:25:40.282Z,96229.75
2022-11-24T15:28:08.443Z,96224.16
2022-11-24T15:30:36.618Z,96223.34
2022-11-24T15:33:11.574Z,96216.19
2022-11-24T15:35:38.235Z,96221.75
2022-11-24T15:38:04.911Z,96231.25
2022-11-24T15:40:31.749Z,96227.22
2022-11-24T15:43:02.069Z,96229.16
2022-11-24T15:45:34.371Z,96231.22
2022-11-24T15:48:00.936Z,96181.97
2022-11-24T15:50:27.601Z,96239.03
2022-11-24T15:52:54.252Z,96244.16
2022-11-24T15:55:22.372Z,96186.28
2022-11-24T15:57:49.393Z,96241.50
2022-11-24T16:00:22.702Z,96238.25
2022-11-24T16:02:49.888Z,96235.91
2022-11-24T16:05:17.689Z,96242.66
2022-11-24T16:07:45.107Z,96240.72
2022-11-24T16:10:30.045Z,96228.84
2022-11-24T16:12:56.604Z,96229.50
2022-11-24T16:15:23.239Z,96243.00
2022-11-24T16:17:50.133Z,96238.97
2022-11-24T16:20:16.978Z,96259.56
2022-11-24T16:22:44.106Z,96269.09
2022-11-24T16:25:11.562Z,96265.59
2022-11-24T16:27:38.537Z,96258.13
2022-11-24T16:30:06.693Z,96280.97
2022-11-24T16:32:33.392Z,96263.56
2022-11-24T16:34:59.974Z,96285.66
2022-11-24T16:37:26.600Z,96271.41
2022-11-24T16:39:53.158Z,96275.34
2022-11-24T16:42:19.768Z,96288.78
2022-11-24T16:44:46.390Z,96228.38
2022-11-24T16:47:13.095Z,96242.19
2022-11-24T16:49:39.776Z,96287.84
2022-11-24T16:52:06.351Z,96285.78
2022-11-24T16:54:33.169Z,96283.00
2022-11-24T16:57:00.132Z,96279.09
2022-11-24T16:59:26.667Z,96263.97
2022-11-24T17:01:53.345Z,96289.69
2022-11-24T17:04:20.025Z,96224.84
2022-11-24T17:06:46.609Z,96284.53
2022-11-24T17:09:13.206Z,96282.91
2022-11-24T17:11:40.522Z,96294.75
2022-11-24T17:14:07.076Z,96299.56
2022-11-24T17:16:33.828Z,96301.91
2022-11-24T17:19:00.540Z,96289.31
2022-11-24T17:21:28.027Z,96295.56
2022-11-24T17:24:05.319Z,96316.06
2022-11-24T17:26:33.107Z,96311.25
2022-11-24T17:28:59.694Z,96322.19
2022-11-24T17:31:29.040Z,96316.59
2022-11-24T17:33:58.054Z,96317.97
2022-11-24T17:36:25.227Z,96322.75
2022-11-24T17:38:51.917Z,96321.09
2022-11-24T17:41:19.637Z,96315.50
2022-11-24T17:43:50.424Z,96320.72
2022-11-24T17:46:17.549Z,96321.38
2022-11-24T17:48:44.280Z,96227.28
2022-11-24T17:51:15.651Z,96318.41
2022-11-24T17:53:43.914Z,96327.31
2022-11-24T17:56:15.849Z,96327.31
2022-11-24T17:58:43.264Z,96335.97
2022-11-24T18:01:10.473Z,96270.53
2022-11-24T18:03:39.435Z,96231.13
2022-11-24T18:06:13.156Z,96329.75
2022-11-24T18:08:41.785Z,96314.63
2022-11-24T18:11:12.500Z,96333.03
2022-11-24T18:13:56.691Z,96327.63
2022-11-24T18:16:28.396Z,96352.00
2022-11-24T18:19:07.899Z,96327.50
2022-11-24T18:21:35.418Z,96342.59
2022-11-24T18:24:02.032Z,96349.88
2022-11-24T18:26:28.829Z,96292.69
2022-11-24T18:28:55.501Z,96358.25
2022-11-24T18:31:22.433Z,96336.50
2022-11-24T18:33:49.494Z,96352.59
2022-11-24T18:36:18.664Z,96361.94
2022-11-24T18:38:45.342Z,96366.66
2022-11-24T18:41:13.859Z,96367.50
2022-11-24T18:43:40.990Z,96371.09
2022-11-24T18:46:11.729Z,96371.56
2022-11-24T18:48:38.434Z,96368.88
2022-11-24T18:51:05.710Z,96366.13
2022-11-24T18:53:32.433Z,96368.13
2022-11-24T18:56:04.722Z,96371.72
2022-11-24T18:58:33.043Z,96330.44
2022-11-24T19:01:18.137Z,96373.50
2022-11-24T19:03:49.073Z,96367.97
2022-11-24T19:06:17.955Z,96367.97
2022-11-24T19:08:45.444Z,96376.63
2022-11-24T19:11:28.334Z,96367.59
2022-11-24T19:13:56.926Z,96373.59
2022-11-24T19:16:24.831Z,96382.06
2022-11-24T19:18:54.304Z,96375.59
2022-11-24T19:21:22.183Z,96360.19
2022-11-24T19:23:49.561Z,96379.69
2022-11-24T19:26:16.184Z,96375.56
2022-11-24T19:28:42.811Z,96361.25
2022-11-24T19:31:12.876Z,96367.22
2022-11-24T19:33:39.975Z,96370.03
2022-11-24T19:36:20.291Z,96368.47
2022-11-24T19:38:52.256Z,96361.19
2022-11-24T19:41:20.435Z,96369.69
2022-11-24T19:43:48.159Z,96371.16
2022-11-24T19:46:17.787Z,96377.28
2022-11-24T19:48:46.708Z,96357.31
2022-11-24T19:51:15.958Z,96379.63
2022-11-24T19:53:43.803Z,96388.06
2022-11-24T19:56:16.459Z,96386.94
2022-11-24T19:58:43.760Z,96358.81
2022-11-24T20:01:16.460Z,96379.50
2022-11-24T20:03:45.439Z,96395.00
2022-11-24T20:06:14.258Z,96408.06
2022-11-24T20:08:42.446Z,96396.25
2022-11-24T20:11:14.731Z,96404.22
2022-11-24T20:13:43.576Z,96343.38
2022-11-24T20:16:16.037Z,96389.56
2022-11-24T20:18:44.873Z,96398.69
2022-11-24T20:21:17.383Z,96376.38
2022-11-24T20:23:45.985Z,96364.13
2022-11-24T20:26:15.720Z,96396.31
2022-11-24T20:28:43.214Z,96395.59
2022-11-24T20:31:19.044Z,96388.28
2022-11-24T20:33:46.065Z,96400.19
2022-11-24T20:36:21.961Z,96393.13
2022-11-24T20:38:49.902Z,96403.41
2022-11-24T20:41:21.867Z,96408.94
2022-11-24T20:43:49.996Z,96397.66
2022-11-24T20:46:23.027Z,96404.09
2022-11-24T20:48:50.474Z,96392.69
2022-11-24T20:51:20.729Z,96415.69
2022-11-24T20:53:48.542Z,96410.09
2022-11-24T20:56:18.354Z,96412.59
2022-11-24T20:58:45.180Z,96414.91
2022-11-24T21:01:24.042Z,96421.88
2022-11-24T21:03:59.221Z,96420.59
2022-11-24T21:06:28.115Z,96420.31
2022-11-24T21:09:00.483Z,96287.09
2022-11-24T21:11:30.509Z,96419.63
2022-11-24T21:13:57.343Z,96396.28
2022-11-24T21:16:32.425Z,96419.00
2022-11-24T21:19:01.904Z,96352.19
2022-11-24T21:21:34.580Z,96379.47
2022-11-24T21:24:05.512Z,96417.81
2022-11-24T21:26:36.474Z,96349.28
2022-11-24T21:29:03.996Z,96378.78
2022-11-24T21:31:30.891Z,96391.59
2022-11-24T21:33:57.517Z,96432.25
2022-11-24T21:36:26.337Z,96433.78
2022-11-24T21:38:55.183Z,96426.63
2022-11-24T21:41:23.246Z,96425.09
2022-11-24T21:43:50.247Z,96423.97
2022-11-24T21:46:17.218Z,96422.13
2022-11-24T21:48:44.415Z,96435.81
2022-11-24T21:51:14.000Z,96433.50
2022-11-24T21:53:41.210Z,96434.50
2022-11-24T21:56:12.821Z,96435.84
2022-11-24T21:58:50.005Z,96438.59
2022-11-24T22:01:18.625Z,96440.28
2022-11-24T22:03:45.898Z,96368.56
2022-11-24T22:06:13.132Z,96440.78
2022-11-24T22:08:39.734Z,96441.59
2022-11-24T22:11:15.143Z,96408.09
2022-11-24T22:13:42.729Z,96438.34
2022-11-24T22:16:12.814Z,96421.78
2022-11-24T22:18:41.947Z,96433.31
2022-11-24T22:21:12.293Z,96434.56
2022-11-24T22:23:39.011Z,96430.88
2022-11-24T22:26:17.509Z,96426.03
2022-11-24T22:28:45.355Z,96410.34
2022-11-24T22:31:17.950Z,96421.59
2022-11-24T22:33:45.340Z,96417.56
2022-11-24T22:36:13.887Z,96399.91
2022-11-24T22:38:40.936Z,96421.69
2022-11-24T22:41:10.894Z,96387.75
2022-11-24T22:43:39.746Z,96386.50
2022-11-24T22:46:12.452Z,96394.72
2022-11-24T22:48:40.309Z,96418.34
2022-11-24T22:51:09.260Z,96412.00
2022-11-24T22:53:35.953Z,96418.34
2022-11-24T22:56:09.859Z,96413.41
2022-11-24T22:58:37.044Z,96377.59
2022-11-24T23:01:08.501Z,96403.88
2022-11-24T23:03:35.875Z,96411.72
2022-11-24T23:06:04.448Z,96410.88
2022-11-24T23:08:33.443Z,96409.31
2022-11-24T23:11:07.936Z,96402.13
2022-11-24T23:13:35.258Z,96405.44
2022-11-24T23:16:13.600Z,96412.59
2022-11-24T23:18:40.931Z,96425.25
2022-11-24T23:21:12.019Z,96417.47
2022-11-24T23:23:38.796Z,96363.09
2022-11-24T23:26:08.496Z,96418.78
2022-11-24T23:28:35.142Z,96417.72
2022-11-24T23:31:06.873Z,96340.97
2022-11-24T23:33:34.124Z,96410.28
2022-11-24T23:36:12.690Z,96411.69
2022-11-24T23:38:40.110Z,96308.94
2022-11-24T23:41:10.881Z,96412.75
2022-11-24T23:43:39.979Z,96413.16
2022-11-24T23:46:10.862Z,96359.13
2022-11-24T23:48:38.570Z,96413.13
2022-11-24T23:51:24.954Z,96410.00
2022-11-24T23:53:52.280Z,96426.59
2022-11-24T23:56:39.113Z,96417.97
2022-11-24T23:59:05.711Z,96429.00
